Time,TemperatureF,DewpointF,PressureIn,WindDirection,WindDirectionDegrees,WindSpeedMPH,WindSpeedGustMPH,Humidity,HourlyPrecipIn,Conditions,Clouds,dailyrainin,SoftwareType,DateUTC
2013-01-20 00:00:00,38.2,32.3,29.77,South,180,2.0,12.0,79,0.02,,,-99.99,Weather View 32 v60,2013-01-20 05:00:00,
2013-01-20 00:05:00,38.2,32.3,29.77,SSE,158,7.0,12.0,79,0.01,,,-99.99,Weather View 32 v60,2013-01-20 05:05:00,
2013-01-20 00:10:00,38.3,32.0,29.77,South,180,4.0,12.0,78,0.01,,,-99.99,Weather View 32 v60,2013-01-20 05:10:00,
2013-01-20 00:15:00,38.3,32.4,29.77,SSW,203,5.0,12.0,79,0.01,,,-99.99,Weather View 32 v60,2013-01-20 05:15:00,
2013-01-20 00:20:00,38.5,32.5,29.77,SSW,203,4.0,12.0,79,0.01,,,-99.99,Weather View 32 v60,2013-01-20 05:20:00,
2013-01-20 00:25:00,38.6,32.3,29.77,SW,225,4.0,12.0,78,0.01,,,-99.99,Weather View 32 v60,2013-01-20 05:25:00,
2013-01-20 00:30:00,38.7,32.4,29.76,SW,225,3.0,12.0,78,0.01,,,-99.99,Weather View 32 v60,2013-01-20 05:30:00,
2013-01-20 00:35:00,38.8,32.5,29.76,SSW,203,5.0,12.0,78,0.01,,,-99.99,Weather View 32 v60,2013-01-20 05:35:00,
2013-01-20 00:40:00,38.9,32.6,29.76,South,180,2.0,12.0,78,0.01,,,-99.99,Weather View 32 v60,2013-01-20 05:40:00,
2013-01-20 00:45:00,38.9,32.6,29.76,SW,225,3.0,12.0,78,0.01,,,-99.99,Weather View 32 v60,2013-01-20 05:45:00,
2013-01-20 00:50:00,39.0,32.4,29.76,SW,225,3.0,12.0,77,0.01,,,-99.99,Weather View 32 v60,2013-01-20 05:50:00,
2013-01-20 00:55:00,39.0,32.4,29.76,SSW,203,3.0,12.0,77,0.00,,,-99.99,Weather View 32 v60,2013-01-20 05:55:00,
2013-01-20 01:00:00,39.1,32.5,29.76,SSW,203,4.0,12.0,77,0.00,,,-99.99,Weather View 32 v60,2013-01-20 06:00:00,
2013-01-20 01:05:00,39.1,32.5,29.76,South,180,5.0,12.0,77,0.00,,,-99.99,Weather View 32 v60,2013-01-20 06:05:00,
2013-01-20 01:10:00,39.2,32.6,29.76,SSW,203,3.0,12.0,77,0.00,,,-99.99,Weather View 32 v60,2013-01-20 06:10:00,
2013-01-20 01:15:00,39.2,32.6,29.76,SSW,203,3.0,12.0,77,0.00,,,-99.99,Weather View 32 v60,2013-01-20 06:15:00,
2013-01-20 01:20:00,39.2,32.6,29.76,SSW,203,3.0,12.0,77,0.00,,,-99.99,Weather View 32 v60,2013-01-20 06:20:00,
2013-01-20 01:25:00,39.3,32.4,29.75,SSE,158,3.0,12.0,76,0.00,,,-99.99,Weather View 32 v60,2013-01-20 06:25:00,
2013-01-20 01:30:00,39.2,32.3,29.75,South,180,2.0,11.0,76,0.00,,,-99.99,Weather View 32 v60,2013-01-20 06:30:00,
2013-01-20 01:35:00,39.1,32.2,29.75,SSW,203,4.0,11.0,76,0.00,,,-99.99,Weather View 32 v60,2013-01-20 06:35:00,
2013-01-20 01:40:00,39.0,32.1,29.75,South,180,4.0,11.0,76,0.00,,,-99.99,Weather View 32 v60,2013-01-20 06:40:00,
2013-01-20 01:45:00,38.9,32.0,29.74,South,180,3.0,11.0,76,0.00,,,-99.99,Weather View 32 v60,2013-01-20 06:45:00,
2013-01-20 01:50:00,38.9,32.0,29.74,South,180,3.0,11.0,76,0.00,,,-99.99,Weather View 32 v60,2013-01-20 06:50:00,
2013-01-20 01:55:00,38.8,31.9,29.73,South,180,3.0,11.0,76,0.00,,,-99.99,Weather View 32 v60,2013-01-20 06:55:00,
2013-01-20 02:00:00,38.7,32.1,29.73,SSW,203,4.0,11.0,77,0.00,,,-99.99,Weather View 32 v60,2013-01-20 07:00:00,
2013-01-20 02:05:00,38.5,31.9,29.73,SW,225,3.0,11.0,77,0.00,,,-99.99,Weather View 32 v60,2013-01-20 07:05:00,
2013-01-20 02:10:00,38.4,31.8,29.72,WSW,248,3.0,11.0,77,0.00,,,-99.99,Weather View 32 v60,2013-01-20 07:10:00,
2013-01-20 02:15:00,38.4,31.8,29.71,SSW,203,6.0,11.0,77,0.00,,,-99.99,Weather View 32 v60,2013-01-20 07:15:00,
2013-01-20 02:20:00,38.4,31.8,29.72,South,180,3.0,9.0,77,0.00,,,-99.99,Weather View 32 v60,2013-01-20 07:20:00,
2013-01-20 02:25:00,38.2,31.6,29.72,SSW,203,3.0,9.0,77,0.00,,,-99.99,Weather View 32 v60,2013-01-20 07:25:00,
2013-01-20 02:30:00,38.1,31.5,29.71,South,180,3.0,9.0,77,0.00,,,-99.99,Weather View 32 v60,2013-01-20 07:30:00,
2013-01-20 02:35:00,38.0,31.4,29.71,WSW,248,1.0,9.0,77,0.00,,,-99.99,Weather View 32 v60,2013-01-20 07:35:00,
2013-01-20 02:40:00,38.0,31.4,29.70,SSW,203,4.0,9.0,77,0.00,,,-99.99,Weather View 32 v60,2013-01-20 07:40:00,
2013-01-20 02:45:00,38.0,31.4,29.70,South,180,4.0,9.0,77,0.00,,,-99.99,Weather View 32 v60,2013-01-20 07:45:00,
2013-01-20 02:50:00,38.0,31.4,29.70,SW,225,3.0,10.0,77,0.00,,,-99.99,Weather View 32 v60,2013-01-20 07:50:00,
2013-01-20 02:55:00,38.0,31.7,29.69,SSW,203,4.0,10.0,78,0.00,,,-99.99,Weather View 32 v60,2013-01-20 07:55:00,
2013-01-20 03:00:00,38.0,31.4,29.69,SSW,203,6.0,10.0,77,0.00,,,-99.99,Weather View 32 v60,2013-01-20 08:00:00,
2013-01-20 03:05:00,38.0,31.4,29.69,SSW,203,4.0,11.0,77,0.00,,,-99.99,Weather View 32 v60,2013-01-20 08:05:00,
2013-01-20 03:10:00,38.1,31.5,29.68,SSW,203,8.0,11.0,77,0.00,,,-99.99,Weather View 32 v60,2013-01-20 08:10:00,
2013-01-20 03:15:00,38.1,31.5,29.68,South,180,4.0,11.0,77,0.00,,,-99.99,Weather View 32 v60,2013-01-20 08:15:00,
2013-01-20 03:20:00,38.1,31.5,29.67,SSW,203,6.0,11.0,77,0.00,,,-99.99,Weather View 32 v60,2013-01-20 08:20:00,
2013-01-20 03:25:00,38.1,31.5,29.67,SW,225,8.0,11.0,77,0.00,,,-99.99,Weather View 32 v60,2013-01-20 08:25:00,
2013-01-20 03:30:00,38.1,31.5,29.67,WSW,248,5.0,16.0,77,0.00,,,-99.99,Weather View 32 v60,2013-01-20 08:30:00,
2013-01-20 03:35:00,38.1,31.5,29.67,South,180,4.0,16.0,77,0.00,,,-99.99,Weather View 32 v60,2013-01-20 08:35:00,
2013-01-20 03:40:00,38.1,31.5,29.67,South,180,4.0,16.0,77,0.00,,,-99.99,Weather View 32 v60,2013-01-20 08:40:00,
2013-01-20 03:45:00,38.1,31.8,29.66,SSW,203,5.0,16.0,78,0.00,,,-99.99,Weather View 32 v60,2013-01-20 08:45:00,
2013-01-20 03:50:00,38.1,31.8,29.66,SSW,203,4.0,16.0,78,0.00,,,-99.99,Weather View 32 v60,2013-01-20 08:50:00,
2013-01-20 03:55:00,38.0,31.7,29.66,South,180,5.0,16.0,78,0.00,,,-99.99,Weather View 32 v60,2013-01-20 08:55:00,
2013-01-20 04:00:00,38.0,31.7,29.65,SSW,203,8.0,16.0,78,0.00,,,-99.99,Weather View 32 v60,2013-01-20 09:00:00,
2013-01-20 04:05:00,38.1,31.8,29.65,South,180,5.0,16.0,78,0.00,,,-99.99,Weather View 32 v60,2013-01-20 09:05:00,
2013-01-20 04:10:00,38.1,31.8,29.65,South,180,4.0,16.0,78,0.00,,,-99.99,Weather View 32 v60,2013-01-20 09:10:00,
2013-01-20 04:15:00,38.1,31.8,29.64,South,180,3.0,18.0,78,0.00,,,-99.99,Weather View 32 v60,2013-01-20 09:15:00,
2013-01-20 04:25:00,38.2,31.9,29.64,SW,225,5.0,18.0,78,0.00,,,-99.99,Weather View 32 v60,2013-01-20 09:25:00,
2013-01-20 04:30:00,38.2,31.9,29.63,SSE,158,4.0,18.0,78,0.00,,,-99.99,Weather View 32 v60,2013-01-20 09:30:00,
2013-01-20 04:40:00,38.1,31.8,29.62,South,180,4.0,18.0,78,0.00,,,-99.99,Weather View 32 v60,2013-01-20 09:40:00,
2013-01-20 04:50:00,38.0,31.7,29.62,SSW,203,2.0,18.0,78,0.00,,,-99.99,Weather View 32 v60,2013-01-20 09:50:00,
2013-01-20 05:00:00,37.8,31.9,29.61,South,180,1.0,18.0,79,0.00,,,-99.99,Weather View 32 v60,2013-01-20 10:00:00,
2013-01-20 05:20:00,38.2,31.9,29.64,SSW,203,6.0,18.0,78,0.00,,,-99.99,Weather View 32 v60,2013-01-20 10:20:00,
2013-01-20 05:25:00,37.8,31.9,29.60,ESE,113,4.0,14.0,79,0.00,,,-99.99,Weather View 32 v60,2013-01-20 10:25:00,
2013-01-20 05:35:00,38.1,31.8,29.63,SW,225,7.0,18.0,78,0.00,,,-99.99,Weather View 32 v60,2013-01-20 10:35:00,
2013-01-20 05:40:00,37.7,31.8,29.59,South,180,4.0,14.0,79,0.00,,,-99.99,Weather View 32 v60,2013-01-20 10:40:00,
2013-01-20 05:45:00,38.1,32.2,29.62,South,180,3.0,18.0,79,0.00,,,-99.99,Weather View 32 v60,2013-01-20 10:45:00,
2013-01-20 05:50:00,37.8,31.9,29.59,South,180,3.0,13.0,79,0.00,,,-99.99,Weather View 32 v60,2013-01-20 10:50:00,
2013-01-20 05:55:00,37.9,32.0,29.62,SSW,203,6.0,18.0,79,0.00,,,-99.99,Weather View 32 v60,2013-01-20 10:55:00,
2013-01-20 06:04:00,37.8,31.9,29.61,South,180,5.0,18.0,79,0.00,,,-99.99,Weather View 32 v60,2013-01-20 11:04:00,
2013-01-20 06:10:00,37.8,31.9,29.60,SW,225,6.0,18.0,79,0.00,,,-99.99,Weather View 32 v60,2013-01-20 11:10:00,
2013-01-20 06:15:00,37.8,31.9,29.60,SSW,203,4.0,18.0,79,0.00,,,-99.99,Weather View 32 v60,2013-01-20 11:15:00,
2013-01-20 06:30:00,37.7,31.8,29.60,West,270,3.0,14.0,79,0.00,,,-99.99,Weather View 32 v60,2013-01-20 11:30:00,
2013-01-20 06:45:00,37.8,31.9,29.59,South,180,6.0,13.0,79,0.00,,,-99.99,Weather View 32 v60,2013-01-20 11:45:00,
2013-01-20 07:00:00,37.7,31.8,29.59,SW,225,5.0,13.0,79,0.00,,,-99.99,Weather View 32 v60,2013-01-20 12:00:00,
2013-01-20 07:05:00,38.8,31.9,29.55,WSW,248,7.0,20.0,76,0.00,,,-99.99,Weather View 32 v60,2013-01-20 12:05:00,
2013-01-20 07:10:00,37.9,32.0,29.58,South,180,4.0,14.0,79,0.00,,,-99.99,Weather View 32 v60,2013-01-20 12:10:00,
2013-01-20 07:15:00,37.9,31.6,29.58,SSW,203,3.0,14.0,78,0.00,,,-99.99,Weather View 32 v60,2013-01-20 12:15:00,
2013-01-20 07:25:00,38.0,31.7,29.57,WSW,248,6.0,16.0,78,0.00,,,-99.99,Weather View 32 v60,2013-01-20 12:25:00,
2013-01-20 07:30:00,38.1,31.8,29.57,SSW,203,7.0,20.0,78,0.00,,,-99.99,Weather View 32 v60,2013-01-20 12:30:00,
2013-01-20 07:40:00,38.3,31.7,29.56,South,180,7.0,20.0,77,0.00,,,-99.99,Weather View 32 v60,2013-01-20 12:40:00,
2013-01-20 07:45:00,38.3,31.7,29.56,SSW,203,4.0,20.0,77,0.00,,,-99.99,Weather View 32 v60,2013-01-20 12:45:00,
2013-01-20 07:54:00,38.6,32.0,29.55,SSW,203,6.0,20.0,77,0.00,,,-99.99,Weather View 32 v60,2013-01-20 12:54:00,
2013-01-20 08:00:00,38.7,31.8,29.55,SW,225,7.0,20.0,76,0.00,,,-99.99,Weather View 32 v60,2013-01-20 13:00:00,
2013-01-20 08:10:00,39.0,32.1,29.56,SW,225,4.0,20.0,76,0.00,,,-99.99,Weather View 32 v60,2013-01-20 13:10:00,
2013-01-20 08:20:00,39.3,32.0,29.56,SSW,203,16.0,20.0,75,0.00,,,-99.99,Weather View 32 v60,2013-01-20 13:20:00,
2013-01-20 08:25:00,39.5,31.9,29.55,SSW,203,7.0,20.0,74,0.00,,,-99.99,Weather View 32 v60,2013-01-20 13:25:00,
2013-01-20 08:34:00,39.9,31.9,29.55,South,180,6.0,19.0,73,0.00,,,-99.99,Weather View 32 v60,2013-01-20 13:34:00,
2013-01-20 08:40:00,40.1,32.1,29.55,SW,225,6.0,19.0,73,0.00,,,-99.99,Weather View 32 v60,2013-01-20 13:40:00,
2013-01-20 08:50:00,40.6,32.3,29.54,SSW,203,11.0,19.0,72,0.00,,,-99.99,Weather View 32 v60,2013-01-20 13:50:00,
2013-01-20 09:00:00,41.4,32.3,29.54,SSW,203,12.0,20.0,70,0.00,,,-99.99,Weather View 32 v60,2013-01-20 14:00:00,
2013-01-20 09:09:00,42.4,32.6,29.54,South,180,5.0,20.0,68,0.00,,,-99.99,Weather View 32 v60,2013-01-20 14:09:00,
2013-01-20 09:15:00,42.8,32.2,29.54,SSW,203,7.0,20.0,66,0.00,,,-99.99,Weather View 32 v60,2013-01-20 14:15:00,
2013-01-20 09:25:00,43.6,32.2,29.54,SW,225,4.0,25.0,64,0.01,,,-99.99,Weather View 32 v60,2013-01-20 14:25:00,
2013-01-20 09:30:00,43.9,32.1,29.54,SSW,203,12.0,25.0,63,0.01,,,-99.99,Weather View 32 v60,2013-01-20 14:30:00,
2013-01-20 09:40:00,44.8,32.2,29.54,WSW,248,6.0,27.0,61,0.01,,,-99.99,Weather View 32 v60,2013-01-20 14:40:00,
2013-01-20 09:45:00,45.1,32.0,29.53,SSW,203,17.0,27.0,60,0.01,,,-99.99,Weather View 32 v60,2013-01-20 14:45:00,
2013-01-20 09:54:00,45.6,31.7,29.53,WSW,248,11.0,27.0,58,0.01,,,-99.99,Weather View 32 v60,2013-01-20 14:54:00,
2013-01-20 10:00:00,45.7,31.7,29.53,South,180,9.0,27.0,58,0.01,,,-99.99,Weather View 32 v60,2013-01-20 15:00:00,
2013-01-20 10:10:00,46.3,31.9,29.52,South,180,8.0,27.0,57,0.01,,,-99.99,Weather View 32 v60,2013-01-20 15:10:00,
2013-01-20 10:15:00,46.5,32.1,29.52,SSW,203,9.0,27.0,57,0.01,,,-99.99,Weather View 32 v60,2013-01-20 15:15:00,
2013-01-20 10:25:00,46.9,32.4,29.52,SW,225,6.0,27.0,57,0.00,,,-99.99,Weather View 32 v60,2013-01-20 15:25:00,
2013-01-20 10:30:00,47.2,32.3,29.52,WNW,293,6.0,27.0,56,0.00,,,-99.99,Weather View 32 v60,2013-01-20 15:30:00,
2013-01-20 10:40:00,47.7,32.3,29.51,WSW,248,3.0,25.0,55,0.00,,,-99.99,Weather View 32 v60,2013-01-20 15:40:00,
2013-01-20 10:47:00,48.0,32.6,29.50,SSW,203,6.0,25.0,55,0.00,,,-99.99,Weather View 32 v60,2013-01-20 15:47:00,
2013-01-20 10:55:00,48.3,32.9,29.49,SW,225,4.0,25.0,55,0.00,,,-99.99,Weather View 32 v60,2013-01-20 15:55:00,
2013-01-20 11:00:00,48.6,32.2,29.48,SSW,203,6.0,25.0,53,0.00,,,-99.99,Weather View 32 v60,2013-01-20 16:00:00,
2013-01-20 11:10:00,48.9,32.0,29.48,SSW,203,9.0,26.0,52,0.00,,,-99.99,Weather View 32 v60,2013-01-20 16:10:00,
2013-01-20 11:15:00,49.0,31.6,29.47,SSW,203,16.0,26.0,51,0.00,,,-99.99,Weather View 32 v60,2013-01-20 16:15:00,
2013-01-20 11:25:00,49.2,31.8,29.47,WSW,248,6.0,26.0,51,0.00,,,-99.99,Weather View 32 v60,2013-01-20 16:25:00,
2013-01-20 11:30:00,49.2,32.3,29.46,NNW,338,5.0,26.0,52,0.00,,,-99.99,Weather View 32 v60,2013-01-20 16:30:00,
2013-01-20 11:39:00,49.3,31.9,29.46,South,180,10.0,26.0,51,0.00,,,-99.99,Weather View 32 v60,2013-01-20 16:39:00,
2013-01-20 11:45:00,49.4,31.5,29.46,SSW,203,9.0,26.0,50,0.00,,,-99.99,Weather View 32 v60,2013-01-20 16:45:00,
2013-01-20 11:55:00,49.6,31.7,29.44,East,90,16.0,26.0,50,0.00,,,-99.99,Weather View 32 v60,2013-01-20 16:55:00,
2013-01-20 12:04:00,49.7,31.8,29.45,North,0,7.0,26.0,50,0.00,,,-99.99,Weather View 32 v60,2013-01-20 17:04:00,
2013-01-20 12:10:00,49.7,31.8,29.46,South,180,6.0,24.0,50,0.00,,,-99.99,Weather View 32 v60,2013-01-20 17:10:00,
2013-01-20 12:15:00,49.9,31.5,29.46,NNW,338,6.0,24.0,49,0.00,,,-99.99,Weather View 32 v60,2013-01-20 17:15:00,
2013-01-20 12:24:00,49.9,32.0,29.46,East,90,4.0,24.0,50,0.00,,,-99.99,Weather View 32 v60,2013-01-20 17:24:00,
2013-01-20 12:30:00,49.7,31.8,29.47,East,90,3.0,24.0,50,0.00,,,-99.99,Weather View 32 v60,2013-01-20 17:30:00,
2013-01-20 12:40:00,49.2,31.3,29.47,SSW,203,5.0,24.0,50,0.00,,,-99.99,Weather View 32 v60,2013-01-20 17:40:00,
2013-01-20 12:48:00,49.0,31.1,29.46,WNW,293,6.0,24.0,50,0.00,,,-99.99,Weather View 32 v60,2013-01-20 17:48:00,
2013-01-20 12:54:00,48.5,31.2,29.47,West,270,7.0,24.0,51,0.00,,,-99.99,Weather View 32 v60,2013-01-20 17:54:00,
2013-01-20 13:00:00,48.2,31.4,29.47,North,0,6.0,24.0,52,0.00,,,-99.99,Weather View 32 v60,2013-01-20 18:00:00,
2013-01-20 13:10:00,47.7,31.4,29.48,West,270,5.0,24.0,53,0.00,,,-99.99,Weather View 32 v60,2013-01-20 18:10:00,
2013-01-20 13:15:00,47.5,31.2,29.48,NNW,338,10.0,18.0,53,0.00,,,-99.99,Weather View 32 v60,2013-01-20 18:15:00,
2013-01-20 13:25:00,47.0,31.6,29.50,NW,315,4.0,20.0,55,0.00,,,-99.99,Weather View 32 v60,2013-01-20 18:25:00,
2013-01-20 13:30:00,46.7,31.8,29.51,WNW,293,7.0,20.0,56,0.00,,,-99.99,Weather View 32 v60,2013-01-20 18:30:00,
2013-01-20 13:39:00,45.9,31.9,29.52,WNW,293,6.0,22.0,58,0.00,,,-99.99,Weather View 32 v60,2013-01-20 18:39:00,
2013-01-20 13:45:00,45.6,31.7,29.52,North,0,10.0,22.0,58,0.00,,,-99.99,Weather View 32 v60,2013-01-20 18:45:00,
2013-01-20 13:55:00,44.8,31.7,29.53,WNW,293,10.0,22.0,60,0.00,,,-99.99,Weather View 32 v60,2013-01-20 18:55:00,
2013-01-20 14:00:00,44.4,31.8,29.53,WNW,293,4.0,22.0,61,0.00,,,-99.99,Weather View 32 v60,2013-01-20 19:00:00,
2013-01-20 14:09:00,43.9,31.7,29.54,WNW,293,4.0,22.0,62,0.00,,,-99.99,Weather View 32 v60,2013-01-20 19:09:00,
2013-01-20 14:15:00,43.8,31.6,29.53,WSW,248,2.0,22.0,62,0.00,,,-99.99,Weather View 32 v60,2013-01-20 19:15:00,
2013-01-20 14:24:00,43.6,31.4,29.54,WSW,248,3.0,22.0,62,0.00,,,-99.99,Weather View 32 v60,2013-01-20 19:24:00,
2013-01-20 14:30:00,43.4,30.8,29.54,WNW,293,9.0,22.0,61,0.00,,,-99.99,Weather View 32 v60,2013-01-20 19:30:00,
2013-01-20 14:40:00,43.4,30.4,29.55,NW,315,4.0,19.0,60,0.00,,,-99.99,Weather View 32 v60,2013-01-20 19:40:00,
2013-01-20 14:45:00,43.4,30.4,29.55,North,0,6.0,19.0,60,0.00,,,-99.99,Weather View 32 v60,2013-01-20 19:45:00,
2013-01-20 14:54:00,43.3,29.5,29.56,West,270,3.0,19.0,58,0.00,,,-99.99,Weather View 32 v60,2013-01-20 19:54:00,
2013-01-20 15:00:00,43.2,29.4,29.56,SW,225,3.0,17.0,58,0.00,,,-99.99,Weather View 32 v60,2013-01-20 20:00:00,
2013-01-20 15:10:00,43.1,28.9,29.56,WSW,248,3.0,17.0,57,0.00,,,-99.99,Weather View 32 v60,2013-01-20 20:10:00,
2013-01-20 15:15:00,42.9,29.1,29.56,WNW,293,3.0,17.0,58,0.00,,,-99.99,Weather View 32 v60,2013-01-20 20:15:00,
2013-01-20 15:25:00,42.7,28.9,29.56,WNW,293,5.0,14.0,58,0.00,,,-99.99,Weather View 32 v60,2013-01-20 20:25:00,
2013-01-20 15:30:00,42.6,28.4,29.56,WNW,293,3.0,14.0,57,0.00,,,-99.99,Weather View 32 v60,2013-01-20 20:30:00,
2013-01-20 15:40:00,42.5,27.9,29.57,WNW,293,5.0,14.0,56,0.00,,,-99.99,Weather View 32 v60,2013-01-20 20:40:00,
2013-01-20 15:50:00,42.3,27.3,29.57,NW,315,4.0,14.0,55,0.00,,,-99.99,Weather View 32 v60,2013-01-20 20:50:00,
2013-01-20 16:00:00,42.2,26.3,29.58,NNW,338,8.0,17.0,53,0.00,,,-99.99,Weather View 32 v60,2013-01-20 21:00:00,
2013-01-20 16:10:00,42.0,24.2,29.59,WNW,293,6.0,17.0,49,0.00,,,-99.99,Weather View 32 v60,2013-01-20 21:10:00,
2013-01-20 16:20:00,41.6,22.8,29.60,North,0,6.0,17.0,47,0.00,,,-99.99,Weather View 32 v60,2013-01-20 21:20:00,
2013-01-20 16:25:00,41.4,22.1,29.60,SE,135,3.0,17.0,46,0.00,,,-99.99,Weather View 32 v60,2013-01-20 21:25:00,
2013-01-20 16:34:00,41.1,21.9,29.62,NNW,338,5.0,17.0,46,0.00,,,-99.99,Weather View 32 v60,2013-01-20 21:34:00,
2013-01-20 16:40:00,40.8,21.6,29.62,NW,315,4.0,17.0,46,0.00,,,-99.99,Weather View 32 v60,2013-01-20 21:40:00,
2013-01-20 16:45:00,40.6,21.4,29.63,West,270,4.0,17.0,46,0.00,,,-99.99,Weather View 32 v60,2013-01-20 21:45:00,
2013-01-20 16:50:00,40.3,21.6,29.64,NNW,338,4.0,17.0,47,0.00,,,-99.99,Weather View 32 v60,2013-01-20 21:50:00,
2013-01-20 17:00:00,39.7,21.1,29.65,WNW,293,10.0,19.0,47,0.00,,,-99.99,Weather View 32 v60,2013-01-20 22:00:00,
2013-01-20 17:10:00,39.1,21.0,29.66,NNW,338,5.0,19.0,48,0.00,,,-99.99,Weather View 32 v60,2013-01-20 22:10:00,
2013-01-20 17:15:00,38.7,21.2,29.66,WNW,293,4.0,19.0,49,0.00,,,-99.99,Weather View 32 v60,2013-01-20 22:15:00,
2013-01-20 17:25:00,38.1,21.1,29.68,NW,315,6.0,19.0,50,0.00,,,-99.99,Weather View 32 v60,2013-01-20 22:25:00,
2013-01-20 17:30:00,37.8,20.8,29.68,WNW,293,3.0,19.0,50,0.00,,,-99.99,Weather View 32 v60,2013-01-20 22:30:00,
2013-01-20 17:40:00,37.1,21.1,29.68,South,180,5.0,25.0,52,0.00,,,-99.99,Weather View 32 v60,2013-01-20 22:40:00,
2013-01-20 17:50:00,36.3,20.3,29.70,SW,225,4.0,25.0,52,0.00,,,-99.99,Weather View 32 v60,2013-01-20 22:50:00,
2013-01-20 18:00:00,35.7,20.2,29.70,WNW,293,6.0,25.0,53,0.00,,,-99.99,Weather View 32 v60,2013-01-20 23:00:00,
2013-01-20 18:10:00,35.2,19.8,29.71,NW,315,4.0,25.0,53,0.00,,,-99.99,Weather View 32 v60,2013-01-20 23:10:00,
2013-01-20 18:15:00,34.9,19.9,29.71,WNW,293,4.0,25.0,54,0.00,,,-99.99,Weather View 32 v60,2013-01-20 23:15:00,
2013-01-20 18:25:00,34.5,19.6,29.72,NNW,338,6.0,25.0,54,0.00,,,-99.99,Weather View 32 v60,2013-01-20 23:25:00,
2013-01-20 18:30:00,34.3,19.4,29.72,WNW,293,7.0,25.0,54,0.00,,,-99.99,Weather View 32 v60,2013-01-20 23:30:00,
2013-01-20 18:39:00,33.9,19.0,29.73,WNW,293,3.0,22.0,54,0.00,,,-99.99,Weather View 32 v60,2013-01-20 23:39:00,
2013-01-20 18:45:00,33.7,18.8,29.73,WNW,293,6.0,19.0,54,0.00,,,-99.99,Weather View 32 v60,2013-01-20 23:45:00,
2013-01-20 18:50:00,33.5,18.6,29.73,SW,225,3.0,17.0,54,0.00,,,-99.99,Weather View 32 v60,2013-01-20 23:50:00,
2013-01-20 19:00:00,33.2,17.9,29.74,WSW,248,3.0,14.0,53,0.00,,,-99.99,Weather View 32 v60,2013-01-21 00:00:00,
2013-01-20 19:10:00,32.8,17.5,29.74,WNW,293,6.0,16.0,53,0.00,,,-99.99,Weather View 32 v60,2013-01-21 00:10:00,
2013-01-20 19:15:00,32.7,17.4,29.75,SW,225,4.0,18.0,53,0.00,,,-99.99,Weather View 32 v60,2013-01-21 00:15:00,
2013-01-20 19:24:00,32.3,17.1,29.75,NNW,338,8.0,18.0,53,0.00,,,-99.99,Weather View 32 v60,2013-01-21 00:24:00,
2013-01-20 19:30:00,32.1,16.9,29.75,WNW,293,11.0,18.0,53,0.00,,,-99.99,Weather View 32 v60,2013-01-21 00:30:00,
2013-01-20 19:40:00,31.7,16.1,29.76,NW,315,5.0,18.0,52,0.00,,,-99.99,Weather View 32 v60,2013-01-21 00:40:00,
2013-01-20 19:49:00,31.3,15.7,29.77,WSW,248,4.0,19.0,52,0.00,,,-99.99,Weather View 32 v60,2013-01-21 00:49:00,
2013-01-20 19:55:00,31.1,15.5,29.77,NW,315,6.0,19.0,52,0.00,,,-99.99,Weather View 32 v60,2013-01-21 00:55:00,
2013-01-20 20:00:00,31.0,15.4,29.78,West,270,10.0,19.0,52,0.00,,,-99.99,Weather View 32 v60,2013-01-21 01:00:00,
2013-01-20 20:09:00,30.7,15.6,29.78,WNW,293,3.0,19.0,53,0.00,,,-99.99,Weather View 32 v60,2013-01-21 01:09:00,
2013-01-20 20:15:00,30.5,15.4,29.78,NW,315,7.0,19.0,53,0.00,,,-99.99,Weather View 32 v60,2013-01-21 01:15:00,
2013-01-20 20:24:00,30.3,15.6,29.78,WNW,293,3.0,19.0,54,0.00,,,-99.99,Weather View 32 v60,2013-01-21 01:24:00,
2013-01-20 20:30:00,30.1,15.5,29.79,North,0,4.0,19.0,54,0.00,,,-99.99,Weather View 32 v60,2013-01-21 01:30:00,
2013-01-20 20:40:00,29.7,15.5,29.79,NNW,338,4.0,19.0,55,0.00,,,-99.99,Weather View 32 v60,2013-01-21 01:40:00,
2013-01-20 20:49:00,29.5,14.9,29.80,South,180,4.0,19.0,54,0.00,,,-99.99,Weather View 32 v60,2013-01-21 01:49:00,
2013-01-20 20:55:00,29.4,14.8,29.80,WNW,293,4.0,19.0,54,0.00,,,-99.99,Weather View 32 v60,2013-01-21 01:55:00,
2013-01-20 21:00:00,29.3,14.7,29.81,NW,315,3.0,19.0,54,0.00,,,-99.99,Weather View 32 v60,2013-01-21 02:00:00,
2013-01-20 21:10:00,29.1,14.9,29.81,WNW,293,2.0,19.0,55,0.00,,,-99.99,Weather View 32 v60,2013-01-21 02:10:00,
2013-01-20 21:15:00,29.0,14.8,29.81,East,90,2.0,18.0,55,0.00,,,-99.99,Weather View 32 v60,2013-01-21 02:15:00,
2013-01-20 21:25:00,28.9,14.8,29.81,WNW,293,5.0,18.0,55,0.00,,,-99.99,Weather View 32 v60,2013-01-21 02:25:00,
2013-01-20 21:30:00,28.8,14.7,29.81,SSW,203,2.0,18.0,55,0.00,,,-99.99,Weather View 32 v60,2013-01-21 02:30:00,
2013-01-20 21:40:00,28.6,14.9,29.81,South,180,3.0,18.0,56,0.00,,,-99.99,Weather View 32 v60,2013-01-21 02:40:00,
2013-01-20 21:49:00,28.5,14.4,29.82,South,180,1.0,15.0,55,0.00,,,-99.99,Weather View 32 v60,2013-01-21 02:49:00,
2013-01-20 21:55:00,28.5,14.0,29.82,SE,135,4.0,14.0,54,0.00,,,-99.99,Weather View 32 v60,2013-01-21 02:55:00,
2013-01-20 22:00:00,28.5,14.4,29.82,WNW,293,6.0,14.0,55,0.00,,,-99.99,Weather View 32 v60,2013-01-21 03:00:00,
2013-01-20 22:10:00,28.3,14.2,29.83,WNW,293,5.0,17.0,55,0.00,,,-99.99,Weather View 32 v60,2013-01-21 03:10:00,
2013-01-20 22:20:00,28.3,14.6,29.83,WNW,293,4.0,17.0,56,0.00,,,-99.99,Weather View 32 v60,2013-01-21 03:20:00,
2013-01-20 22:25:00,28.2,14.5,29.83,SW,225,4.0,17.0,56,0.00,,,-99.99,Weather View 32 v60,2013-01-21 03:25:00,
2013-01-20 22:34:00,28.1,14.4,29.84,WNW,293,3.0,17.0,56,0.00,,,-99.99,Weather View 32 v60,2013-01-21 03:34:00,
2013-01-20 22:40:00,28.1,14.4,29.84,NNW,338,4.0,17.0,56,0.00,,,-99.99,Weather View 32 v60,2013-01-21 03:40:00,
2013-01-20 22:45:00,28.0,14.7,29.85,NNW,338,3.0,17.0,57,0.00,,,-99.99,Weather View 32 v60,2013-01-21 03:45:00,
2013-01-20 22:54:00,28.0,14.7,29.85,NNW,338,4.0,17.0,57,0.00,,,-99.99,Weather View 32 v60,2013-01-21 03:54:00,
2013-01-20 23:00:00,27.9,15.0,29.85,NW,315,7.0,17.0,58,0.00,,,-99.99,Weather View 32 v60,2013-01-21 04:00:00,
2013-01-20 23:05:00,26.9,14.9,29.86,NNW,338,3.0,20.0,60,0.00,,,-99.99,Weather View 32 v60,2013-01-21 04:05:00,
2013-01-20 23:10:00,27.9,15.4,29.86,WNW,293,5.0,15.0,59,0.00,,,-99.99,Weather View 32 v60,2013-01-21 04:10:00,
2013-01-20 23:15:00,27.8,15.3,29.86,SW,225,1.0,20.0,59,0.00,,,-99.99,Weather View 32 v60,2013-01-21 04:15:00,
2013-01-20 23:20:00,26.7,14.7,29.86,NW,315,6.0,18.0,60,0.00,,,-99.99,Weather View 32 v60,2013-01-21 04:20:00,
2013-01-20 23:24:00,27.7,16.0,29.86,WNW,293,9.0,20.0,61,0.00,,,-99.99,Weather View 32 v60,2013-01-21 04:24:00,
2013-01-20 23:25:00,26.6,14.6,29.87,WNW,293,4.0,17.0,60,0.00,,,-99.99,Weather View 32 v60,2013-01-21 04:25:00,
2013-01-20 23:30:00,27.6,15.9,29.86,NNW,338,7.0,20.0,61,0.00,,,-99.99,Weather View 32 v60,2013-01-21 04:30:00,
2013-01-20 23:35:00,26.4,14.8,29.87,WNW,293,5.0,17.0,61,0.00,,,-99.99,Weather View 32 v60,2013-01-21 04:35:00,
2013-01-20 23:40:00,27.4,15.7,29.86,NW,315,4.0,20.0,61,0.00,,,-99.99,Weather View 32 v60,2013-01-21 04:40:00,
2013-01-20 23:45:00,27.3,15.6,29.86,WNW,293,3.0,20.0,61,0.00,,,-99.99,Weather View 32 v60,2013-01-21 04:45:00,
2013-01-20 23:50:00,26.3,14.7,29.88,West,270,4.0,17.0,61,0.00,,,-99.99,Weather View 32 v60,2013-01-21 04:50:00,
2013-01-20 23:54:00,27.2,15.1,29.86,WNW,293,9.0,20.0,60,0.00,,,-99.99,Weather View 32 v60,2013-01-21 04:54:00,
2013-01-20 23:55:00,26.2,14.6,29.88,NNW,338,5.0,16.0,61,0.00,,,-99.99,Weather View 32 v60,2013-01-21 04:55:00,